sensor_id;sensor_type;location;lat;lon;timestamp;temperature;humidity
52743;DHT22;55583;53.012;6.556;2023-06-14T00:01:46;16.40;59.20
52743;DHT22;55583;53.012;6.556;2023-06-14T00:04:13;16.50;59.40
52743;DHT22;55583;53.012;6.556;2023-06-14T00:06:39;16.40;59.70
52743;DHT22;55583;53.012;6.556;2023-06-14T00:09:05;16.40;59.80
52743;DHT22;55583;53.012;6.556;2023-06-14T00:11:31;16.30;59.90
52743;DHT22;55583;53.012;6.556;2023-06-14T00:13:57;16.30;60.10
52743;DHT22;55583;53.012;6.556;2023-06-14T00:16:23;16.30;60.20
52743;DHT22;55583;53.012;6.556;2023-06-14T00:18:49;16.30;60.30
52743;DHT22;55583;53.012;6.556;2023-06-14T00:21:17;16.20;60.50
52743;DHT22;55583;53.012;6.556;2023-06-14T00:23:43;16.20;60.70
52743;DHT22;55583;53.012;6.556;2023-06-14T00:26:08;16.10;60.80
52743;DHT22;55583;53.012;6.556;2023-06-14T00:28:34;16.10;61.00
52743;DHT22;55583;53.012;6.556;2023-06-14T00:31:00;16.10;61.30
52743;DHT22;55583;53.012;6.556;2023-06-14T00:33:25;16.10;61.40
52743;DHT22;55583;53.012;6.556;2023-06-14T00:35:51;16.00;61.50
52743;DHT22;55583;53.012;6.556;2023-06-14T00:38:19;16.20;61.90
52743;DHT22;55583;53.012;6.556;2023-06-14T00:40:45;16.00;62.00
52743;DHT22;55583;53.012;6.556;2023-06-14T00:43:11;15.90;62.10
52743;DHT22;55583;53.012;6.556;2023-06-14T00:45:36;15.90;62.20
52743;DHT22;55583;53.012;6.556;2023-06-14T00:48:03;15.90;62.50
52743;DHT22;55583;53.012;6.556;2023-06-14T00:50:29;15.90;62.60
52743;DHT22;55583;53.012;6.556;2023-06-14T00:52:57;15.80;62.70
52743;DHT22;55583;53.012;6.556;2023-06-14T00:55:23;15.80;63.10
52743;DHT22;55583;53.012;6.556;2023-06-14T00:57:48;15.70;63.20
52743;DHT22;55583;53.012;6.556;2023-06-14T01:00:14;15.70;63.50
52743;DHT22;55583;53.012;6.556;2023-06-14T01:02:40;15.70;63.70
52743;DHT22;55583;53.012;6.556;2023-06-14T01:05:07;15.60;64.00
52743;DHT22;55583;53.012;6.556;2023-06-14T01:13:12;15.50;64.60
52743;DHT22;55583;53.012;6.556;2023-06-14T01:15:39;15.50;64.80
52743;DHT22;55583;53.012;6.556;2023-06-14T01:18:06;15.50;65.20
52743;DHT22;55583;53.012;6.556;2023-06-14T01:20:33;15.50;65.30
52743;DHT22;55583;53.012;6.556;2023-06-14T01:23:02;15.40;65.40
52743;DHT22;55583;53.012;6.556;2023-06-14T01:25:27;15.40;65.90
52743;DHT22;55583;53.012;6.556;2023-06-14T01:28:00;15.50;66.20
52743;DHT22;55583;53.012;6.556;2023-06-14T01:30:29;15.30;66.40
52743;DHT22;55583;53.012;6.556;2023-06-14T01:32:57;15.20;66.40
52743;DHT22;55583;53.012;6.556;2023-06-14T01:35:23;15.20;66.80
52743;DHT22;55583;53.012;6.556;2023-06-14T01:37:49;15.10;66.80
52743;DHT22;55583;53.012;6.556;2023-06-14T01:40:17;15.10;67.30
52743;DHT22;55583;53.012;6.556;2023-06-14T01:42:44;15.10;67.50
52743;DHT22;55583;53.012;6.556;2023-06-14T01:45:11;15.00;68.00
52743;DHT22;55583;53.012;6.556;2023-06-14T01:47:37;14.90;68.10
52743;DHT22;55583;53.012;6.556;2023-06-14T01:50:04;14.90;68.40
52743;DHT22;55583;53.012;6.556;2023-06-14T01:52:29;14.90;68.80
52743;DHT22;55583;53.012;6.556;2023-06-14T01:54:55;14.80;69.30
52743;DHT22;55583;53.012;6.556;2023-06-14T01:57:22;14.80;69.60
52743;DHT22;55583;53.012;6.556;2023-06-14T01:59:48;14.70;70.00
52743;DHT22;55583;53.012;6.556;2023-06-14T02:02:14;14.80;70.00
52743;DHT22;55583;53.012;6.556;2023-06-14T02:04:41;14.80;70.60
52743;DHT22;55583;53.012;6.556;2023-06-14T02:07:07;14.70;70.80
52743;DHT22;55583;53.012;6.556;2023-06-14T02:09:33;14.70;71.10
52743;DHT22;55583;53.012;6.556;2023-06-14T02:11:59;14.60;71.50
52743;DHT22;55583;53.012;6.556;2023-06-14T02:14:25;14.60;71.70
52743;DHT22;55583;53.012;6.556;2023-06-14T02:16:51;14.50;72.10
52743;DHT22;55583;53.012;6.556;2023-06-14T02:19:19;14.50;72.30
52743;DHT22;55583;53.012;6.556;2023-06-14T02:21:45;14.50;72.60
52743;DHT22;55583;53.012;6.556;2023-06-14T02:24:11;14.50;72.80
52743;DHT22;55583;53.012;6.556;2023-06-14T02:26:37;14.40;73.30
52743;DHT22;55583;53.012;6.556;2023-06-14T02:29:09;14.40;73.80
52743;DHT22;55583;53.012;6.556;2023-06-14T02:31:36;14.30;74.10
52743;DHT22;55583;53.012;6.556;2023-06-14T02:34:02;14.40;74.20
52743;DHT22;55583;53.012;6.556;2023-06-14T02:36:28;14.30;75.00
52743;DHT22;55583;53.012;6.556;2023-06-14T02:38:56;14.30;75.10
52743;DHT22;55583;53.012;6.556;2023-06-14T02:41:26;14.30;75.50
52743;DHT22;55583;53.012;6.556;2023-06-14T02:43:52;14.30;75.80
52743;DHT22;55583;53.012;6.556;2023-06-14T02:46:18;14.40;76.50
52743;DHT22;55583;53.012;6.556;2023-06-14T02:48:44;14.30;77.70
52743;DHT22;55583;53.012;6.556;2023-06-14T02:51:09;14.30;77.50
52743;DHT22;55583;53.012;6.556;2023-06-14T02:53:35;14.30;78.00
52743;DHT22;55583;53.012;6.556;2023-06-14T02:56:02;14.20;78.20
52743;DHT22;55583;53.012;6.556;2023-06-14T02:58:29;14.20;78.70
52743;DHT22;55583;53.012;6.556;2023-06-14T03:00:55;14.20;79.80
52743;DHT22;55583;53.012;6.556;2023-06-14T03:03:21;14.20;80.20
52743;DHT22;55583;53.012;6.556;2023-06-14T03:05:47;14.10;81.00
52743;DHT22;55583;53.012;6.556;2023-06-14T03:08:17;14.10;81.80
52743;DHT22;55583;53.012;6.556;2023-06-14T03:10:45;14.10;82.50
52743;DHT22;55583;53.012;6.556;2023-06-14T03:13:15;14.10;83.50
52743;DHT22;55583;53.012;6.556;2023-06-14T03:15:46;14.10;84.30
52743;DHT22;55583;53.012;6.556;2023-06-14T03:18:13;14.10;85.50
52743;DHT22;55583;53.012;6.556;2023-06-14T03:20:40;14.20;85.90
52743;DHT22;55583;53.012;6.556;2023-06-14T03:23:06;14.10;87.00
52743;DHT22;55583;53.012;6.556;2023-06-14T03:25:32;14.20;88.00
52743;DHT22;55583;53.012;6.556;2023-06-14T03:28:04;14.00;88.70
52743;DHT22;55583;53.012;6.556;2023-06-14T03:30:30;14.00;90.00
52743;DHT22;55583;53.012;6.556;2023-06-14T03:32:56;14.00;90.40
52743;DHT22;55583;53.012;6.556;2023-06-14T03:35:23;13.90;91.10
52743;DHT22;55583;53.012;6.556;2023-06-14T03:37:49;13.90;91.60
52743;DHT22;55583;53.012;6.556;2023-06-14T03:40:17;13.90;92.20
52743;DHT22;55583;53.012;6.556;2023-06-14T03:42:43;13.90;92.90
52743;DHT22;55583;53.012;6.556;2023-06-14T03:45:09;13.90;93.40
52743;DHT22;55583;53.012;6.556;2023-06-14T03:47:35;13.90;94.10
52743;DHT22;55583;53.012;6.556;2023-06-14T03:50:04;13.90;94.80
52743;DHT22;55583;53.012;6.556;2023-06-14T03:52:30;13.90;95.60
52743;DHT22;55583;53.012;6.556;2023-06-14T03:54:56;13.80;95.70
52743;DHT22;55583;53.012;6.556;2023-06-14T03:57:26;14.10;96.50
52743;DHT22;55583;53.012;6.556;2023-06-14T03:59:51;13.90;97.10
52743;DHT22;55583;53.012;6.556;2023-06-14T04:02:17;13.90;97.60
52743;DHT22;55583;53.012;6.556;2023-06-14T04:04:44;13.90;98.10
52743;DHT22;55583;53.012;6.556;2023-06-14T04:07:14;13.90;98.80
52743;DHT22;55583;53.012;6.556;2023-06-14T04:09:40;13.90;99.40
52743;DHT22;55583;53.012;6.556;2023-06-14T04:12:07;13.90;99.80
52743;DHT22;55583;53.012;6.556;2023-06-14T04:14:34;13.90;99.90
52743;DHT22;55583;53.012;6.556;2023-06-14T04:17:00;14.00;99.90
52743;DHT22;55583;53.012;6.556;2023-06-14T04:19:26;14.00;99.90
52743;DHT22;55583;53.012;6.556;2023-06-14T04:21:52;14.00;99.90
52743;DHT22;55583;53.012;6.556;2023-06-14T04:24:17;14.00;99.90
52743;DHT22;55583;53.012;6.556;2023-06-14T04:26:44;14.00;99.90
52743;DHT22;55583;53.012;6.556;2023-06-14T04:29:17;14.10;99.90
52743;DHT22;55583;53.012;6.556;2023-06-14T04:31:45;14.10;99.90
52743;DHT22;55583;53.012;6.556;2023-06-14T04:34:12;14.20;99.90
52743;DHT22;55583;53.012;6.556;2023-06-14T04:36:42;14.20;99.90
52743;DHT22;55583;53.012;6.556;2023-06-14T04:39:17;14.20;99.90
52743;DHT22;55583;53.012;6.556;2023-06-14T04:41:43;14.20;99.90
52743;DHT22;55583;53.012;6.556;2023-06-14T04:44:09;14.30;99.90
52743;DHT22;55583;53.012;6.556;2023-06-14T04:46:35;14.30;99.90
52743;DHT22;55583;53.012;6.556;2023-06-14T04:49:09;14.40;99.90
52743;DHT22;55583;53.012;6.556;2023-06-14T04:51:35;14.40;99.90
52743;DHT22;55583;53.012;6.556;2023-06-14T04:54:02;14.50;99.90
52743;DHT22;55583;53.012;6.556;2023-06-14T04:56:28;14.50;99.90
52743;DHT22;55583;53.012;6.556;2023-06-14T04:58:54;14.60;99.90
52743;DHT22;55583;53.012;6.556;2023-06-14T05:01:22;14.70;99.90
52743;DHT22;55583;53.012;6.556;2023-06-14T05:03:49;14.70;99.90
52743;DHT22;55583;53.012;6.556;2023-06-14T05:06:15;14.70;99.90
52743;DHT22;55583;53.012;6.556;2023-06-14T05:08:41;14.80;99.90
52743;DHT22;55583;53.012;6.556;2023-06-14T05:11:06;14.80;99.90
52743;DHT22;55583;53.012;6.556;2023-06-14T05:13:32;14.80;99.90
52743;DHT22;55583;53.012;6.556;2023-06-14T05:15:58;14.90;99.90
52743;DHT22;55583;53.012;6.556;2023-06-14T05:18:24;15.00;99.90
52743;DHT22;55583;53.012;6.556;2023-06-14T05:20:51;15.10;99.90
52743;DHT22;55583;53.012;6.556;2023-06-14T05:23:16;15.10;99.90
52743;DHT22;55583;53.012;6.556;2023-06-14T05:25:46;15.20;99.90
52743;DHT22;55583;53.012;6.556;2023-06-14T05:28:12;15.20;99.90
52743;DHT22;55583;53.012;6.556;2023-06-14T05:30:38;15.30;99.90
52743;DHT22;55583;53.012;6.556;2023-06-14T05:33:04;15.40;99.90
52743;DHT22;55583;53.012;6.556;2023-06-14T05:35:30;15.50;99.90
52743;DHT22;55583;53.012;6.556;2023-06-14T05:37:55;15.50;99.90
52743;DHT22;55583;53.012;6.556;2023-06-14T05:40:21;15.60;99.90
52743;DHT22;55583;53.012;6.556;2023-06-14T05:42:47;15.70;99.90
52743;DHT22;55583;53.012;6.556;2023-06-14T05:45:16;15.70;99.90
52743;DHT22;55583;53.012;6.556;2023-06-14T05:47:42;15.80;99.90
52743;DHT22;55583;53.012;6.556;2023-06-14T05:50:08;15.90;99.80
52743;DHT22;55583;53.012;6.556;2023-06-14T05:52:34;16.00;99.40
52743;DHT22;55583;53.012;6.556;2023-06-14T05:55:02;16.00;99.40
52743;DHT22;55583;53.012;6.556;2023-06-14T05:57:28;16.10;99.30
52743;DHT22;55583;53.012;6.556;2023-06-14T05:59:54;16.20;99.50
52743;DHT22;55583;53.012;6.556;2023-06-14T06:02:20;16.40;99.60
52743;DHT22;55583;53.012;6.556;2023-06-14T06:04:46;16.60;99.70
52743;DHT22;55583;53.012;6.556;2023-06-14T06:07:11;16.90;98.80
52743;DHT22;55583;53.012;6.556;2023-06-14T06:09:37;17.20;97.70
52743;DHT22;55583;53.012;6.556;2023-06-14T06:12:04;17.60;96.40
52743;DHT22;55583;53.012;6.556;2023-06-14T06:14:30;17.90;95.50
52743;DHT22;55583;53.012;6.556;2023-06-14T06:16:56;18.20;93.30
52743;DHT22;55583;53.012;6.556;2023-06-14T06:19:22;18.40;91.20
52743;DHT22;55583;53.012;6.556;2023-06-14T06:21:47;18.70;88.70
52743;DHT22;55583;53.012;6.556;2023-06-14T06:24:13;18.80;86.70
52743;DHT22;55583;53.012;6.556;2023-06-14T06:26:39;18.90;85.70
52743;DHT22;55583;53.012;6.556;2023-06-14T06:29:05;18.90;84.60
52743;DHT22;55583;53.012;6.556;2023-06-14T06:31:31;19.00;83.70
52743;DHT22;55583;53.012;6.556;2023-06-14T06:33:57;19.20;83.50
52743;DHT22;55583;53.012;6.556;2023-06-14T06:36:22;19.50;82.70
52743;DHT22;55583;53.012;6.556;2023-06-14T06:38:48;19.90;80.80
52743;DHT22;55583;53.012;6.556;2023-06-14T06:41:14;20.20;78.30
52743;DHT22;55583;53.012;6.556;2023-06-14T06:43:39;20.50;75.50
52743;DHT22;55583;53.012;6.556;2023-06-14T06:46:05;20.80;73.80
52743;DHT22;55583;53.012;6.556;2023-06-14T06:48:31;21.00;72.00
52743;DHT22;55583;53.012;6.556;2023-06-14T06:50:56;21.30;70.60
52743;DHT22;55583;53.012;6.556;2023-06-14T06:53:22;21.70;68.70
52743;DHT22;55583;53.012;6.556;2023-06-14T06:55:48;21.80;67.10
52743;DHT22;55583;53.012;6.556;2023-06-14T06:58:14;22.00;66.60
52743;DHT22;55583;53.012;6.556;2023-06-14T07:00:40;22.40;65.90
52743;DHT22;55583;53.012;6.556;2023-06-14T07:03:06;22.70;64.50
52743;DHT22;55583;53.012;6.556;2023-06-14T07:05:32;23.00;63.40
52743;DHT22;55583;53.012;6.556;2023-06-14T07:07:58;23.40;62.00
52743;DHT22;55583;53.012;6.556;2023-06-14T07:10:23;23.60;60.40
52743;DHT22;55583;53.012;6.556;2023-06-14T07:12:50;23.80;58.90
52743;DHT22;55583;53.012;6.556;2023-06-14T07:15:16;23.80;58.20
52743;DHT22;55583;53.012;6.556;2023-06-14T07:17:42;23.60;58.00
52743;DHT22;55583;53.012;6.556;2023-06-14T07:20:08;23.50;57.80
52743;DHT22;55583;53.012;6.556;2023-06-14T07:22:41;23.60;57.30
52743;DHT22;55583;53.012;6.556;2023-06-14T07:25:08;23.20;56.60
52743;DHT22;55583;53.012;6.556;2023-06-14T07:27:34;22.70;57.70
52743;DHT22;55583;53.012;6.556;2023-06-14T07:30:00;22.30;58.90
52743;DHT22;55583;53.012;6.556;2023-06-14T07:32:25;22.10;59.60
52743;DHT22;55583;53.012;6.556;2023-06-14T07:34:51;22.10;60.60
52743;DHT22;55583;53.012;6.556;2023-06-14T07:37:17;22.30;60.10
52743;DHT22;55583;53.012;6.556;2023-06-14T07:39:42;22.70;58.00
52743;DHT22;55583;53.012;6.556;2023-06-14T07:42:08;22.80;57.50
52743;DHT22;55583;53.012;6.556;2023-06-14T07:44:33;22.60;57.30
52743;DHT22;55583;53.012;6.556;2023-06-14T07:46:59;22.40;57.50
52743;DHT22;55583;53.012;6.556;2023-06-14T07:49:28;22.50;57.20
52743;DHT22;55583;53.012;6.556;2023-06-14T07:51:54;22.50;57.60
52743;DHT22;55583;53.012;6.556;2023-06-14T07:54:20;22.50;57.40
52743;DHT22;55583;53.012;6.556;2023-06-14T07:56:50;22.40;57.40
52743;DHT22;55583;53.012;6.556;2023-06-14T07:59:16;22.10;58.40
52743;DHT22;55583;53.012;6.556;2023-06-14T08:01:41;22.00;58.30
52743;DHT22;55583;53.012;6.556;2023-06-14T08:04:13;22.20;58.70
52743;DHT22;55583;53.012;6.556;2023-06-14T08:06:38;23.00;57.90
52743;DHT22;55583;53.012;6.556;2023-06-14T08:09:04;23.60;56.70
52743;DHT22;55583;53.012;6.556;2023-06-14T08:11:31;23.60;56.00
52743;DHT22;55583;53.012;6.556;2023-06-14T08:13:56;23.40;56.40
52743;DHT22;55583;53.012;6.556;2023-06-14T08:16:22;23.30;57.00
52743;DHT22;55583;53.012;6.556;2023-06-14T08:18:48;23.20;56.50
52743;DHT22;55583;53.012;6.556;2023-06-14T08:21:14;22.90;56.90
52743;DHT22;55583;53.012;6.556;2023-06-14T08:23:40;22.80;56.20
52743;DHT22;55583;53.012;6.556;2023-06-14T08:26:09;23.00;56.30
52743;DHT22;55583;53.012;6.556;2023-06-14T08:28:34;23.30;55.10
52743;DHT22;55583;53.012;6.556;2023-06-14T08:31:00;23.30;54.80
52743;DHT22;55583;53.012;6.556;2023-06-14T08:33:27;23.30;54.20
52743;DHT22;55583;53.012;6.556;2023-06-14T08:35:52;23.40;54.20
52743;DHT22;55583;53.012;6.556;2023-06-14T08:38:18;24.00;53.70
52743;DHT22;55583;53.012;6.556;2023-06-14T08:40:46;25.00;51.90
52743;DHT22;55583;53.012;6.556;2023-06-14T08:43:13;25.50;50.60
52743;DHT22;55583;53.012;6.556;2023-06-14T08:45:39;26.30;50.50
52743;DHT22;55583;53.012;6.556;2023-06-14T08:48:08;27.40;49.40
52743;DHT22;55583;53.012;6.556;2023-06-14T08:50:34;28.70;47.30
52743;DHT22;55583;53.012;6.556;2023-06-14T08:53:02;29.90;45.70
52743;DHT22;55583;53.012;6.556;2023-06-14T08:55:29;31.10;44.40
52743;DHT22;55583;53.012;6.556;2023-06-14T08:57:57;31.60;42.30
52743;DHT22;55583;53.012;6.556;2023-06-14T09:00:24;31.80;41.30
52743;DHT22;55583;53.012;6.556;2023-06-14T09:02:51;31.70;40.50
52743;DHT22;55583;53.012;6.556;2023-06-14T09:05:25;31.50;40.40
52743;DHT22;55583;53.012;6.556;2023-06-14T09:07:51;31.70;40.10
52743;DHT22;55583;53.012;6.556;2023-06-14T09:10:16;31.90;39.60
52743;DHT22;55583;53.012;6.556;2023-06-14T09:12:42;32.40;39.40
52743;DHT22;55583;53.012;6.556;2023-06-14T09:15:09;32.90;39.10
52743;DHT22;55583;53.012;6.556;2023-06-14T09:17:36;33.60;38.30
52743;DHT22;55583;53.012;6.556;2023-06-14T09:20:03;34.10;38.00
52743;DHT22;55583;53.012;6.556;2023-06-14T09:22:34;34.40;37.70
52743;DHT22;55583;53.012;6.556;2023-06-14T09:25:00;34.40;36.20
52743;DHT22;55583;53.012;6.556;2023-06-14T09:27:26;34.40;37.30
52743;DHT22;55583;53.012;6.556;2023-06-14T09:29:52;34.20;36.70
52743;DHT22;55583;53.012;6.556;2023-06-14T09:32:18;34.30;36.40
52743;DHT22;55583;53.012;6.556;2023-06-14T09:34:45;34.40;36.10
52743;DHT22;55583;53.012;6.556;2023-06-14T09:37:12;34.90;36.20
52743;DHT22;55583;53.012;6.556;2023-06-14T09:39:50;35.30;36.00
52743;DHT22;55583;53.012;6.556;2023-06-14T09:42:17;35.70;35.10
52743;DHT22;55583;53.012;6.556;2023-06-14T09:44:47;35.50;35.00
52743;DHT22;55583;53.012;6.556;2023-06-14T09:47:15;35.70;34.80
52743;DHT22;55583;53.012;6.556;2023-06-14T09:49:40;35.80;34.50
52743;DHT22;55583;53.012;6.556;2023-06-14T09:52:07;36.00;34.60
52743;DHT22;55583;53.012;6.556;2023-06-14T09:54:41;36.50;34.20
52743;DHT22;55583;53.012;6.556;2023-06-14T09:57:12;37.00;33.70
52743;DHT22;55583;53.012;6.556;2023-06-14T09:59:42;37.00;33.40
52743;DHT22;55583;53.012;6.556;2023-06-14T10:02:29;37.00;33.20
52743;DHT22;55583;53.012;6.556;2023-06-14T10:05:07;36.70;33.30
52743;DHT22;55583;53.012;6.556;2023-06-14T10:07:48;36.30;33.60
52743;DHT22;55583;53.012;6.556;2023-06-14T10:10:16;36.60;33.30
52743;DHT22;55583;53.012;6.556;2023-06-14T10:12:42;36.80;32.70
52743;DHT22;55583;53.012;6.556;2023-06-14T10:15:17;37.10;33.20
52743;DHT22;55583;53.012;6.556;2023-06-14T10:17:50;37.70;33.10
52743;DHT22;55583;53.012;6.556;2023-06-14T10:20:32;38.10;32.40
52743;DHT22;55583;53.012;6.556;2023-06-14T10:23:17;37.90;32.30
52743;DHT22;55583;53.012;6.556;2023-06-14T10:25:44;37.20;31.80
52743;DHT22;55583;53.012;6.556;2023-06-14T10:28:21;37.20;32.60
52743;DHT22;55583;53.012;6.556;2023-06-14T10:33:31;37.20;31.50
52743;DHT22;55583;53.012;6.556;2023-06-14T10:36:23;37.00;32.10
52743;DHT22;55583;53.012;6.556;2023-06-14T10:39:18;37.10;31.40
52743;DHT22;55583;53.012;6.556;2023-06-14T10:41:55;37.00;31.90
52743;DHT22;55583;53.012;6.556;2023-06-14T10:46:49;37.10;32.00
52743;DHT22;55583;53.012;6.556;2023-06-14T10:49:18;37.60;32.00
52743;DHT22;55583;53.012;6.556;2023-06-14T10:51:46;37.50;31.50
52743;DHT22;55583;53.012;6.556;2023-06-14T10:54:15;37.20;31.70
52743;DHT22;55583;53.012;6.556;2023-06-14T10:56:48;37.10;31.80
52743;DHT22;55583;53.012;6.556;2023-06-14T10:59:15;37.00;31.90
52743;DHT22;55583;53.012;6.556;2023-06-14T11:04:50;37.20;31.50
52743;DHT22;55583;53.012;6.556;2023-06-14T11:10:38;36.60;31.20
52743;DHT22;55583;53.012;6.556;2023-06-14T11:13:05;36.90;31.40
52743;DHT22;55583;53.012;6.556;2023-06-14T11:15:32;37.10;31.50
52743;DHT22;55583;53.012;6.556;2023-06-14T11:18:08;37.70;31.20
52743;DHT22;55583;53.012;6.556;2023-06-14T11:20:37;38.20;31.10
52743;DHT22;55583;53.012;6.556;2023-06-14T11:23:03;38.40;31.00
52743;DHT22;55583;53.012;6.556;2023-06-14T11:25:29;38.20;30.90
52743;DHT22;55583;53.012;6.556;2023-06-14T11:27:56;38.30;30.80
52743;DHT22;55583;53.012;6.556;2023-06-14T11:30:22;38.00;30.40
52743;DHT22;55583;53.012;6.556;2023-06-14T11:32:49;37.60;30.90
52743;DHT22;55583;53.012;6.556;2023-06-14T11:35:16;36.80;31.10
52743;DHT22;55583;53.012;6.556;2023-06-14T11:37:42;35.90;32.10
52743;DHT22;55583;53.012;6.556;2023-06-14T11:40:10;35.20;32.80
52743;DHT22;55583;53.012;6.556;2023-06-14T11:42:38;35.10;32.80
52743;DHT22;55583;53.012;6.556;2023-06-14T11:45:07;35.30;32.90
52743;DHT22;55583;53.012;6.556;2023-06-14T11:47:34;35.50;32.90
52743;DHT22;55583;53.012;6.556;2023-06-14T11:50:00;35.90;32.90
52743;DHT22;55583;53.012;6.556;2023-06-14T11:52:26;36.40;32.80
52743;DHT22;55583;53.012;6.556;2023-06-14T11:54:53;37.20;32.30
52743;DHT22;55583;53.012;6.556;2023-06-14T11:57:18;37.60;31.90
52743;DHT22;55583;53.012;6.556;2023-06-14T11:59:44;37.30;31.90
52743;DHT22;55583;53.012;6.556;2023-06-14T12:02:17;37.30;31.60
52743;DHT22;55583;53.012;6.556;2023-06-14T12:04:44;37.40;31.70
52743;DHT22;55583;53.012;6.556;2023-06-14T12:07:13;37.10;31.80
52743;DHT22;55583;53.012;6.556;2023-06-14T12:12:36;38.20;31.10
52743;DHT22;55583;53.012;6.556;2023-06-14T12:15:06;37.90;31.50
52743;DHT22;55583;53.012;6.556;2023-06-14T12:17:36;37.90;31.30
52743;DHT22;55583;53.012;6.556;2023-06-14T12:20:08;38.00;31.20
52743;DHT22;55583;53.012;6.556;2023-06-14T12:22:58;38.20;31.30
52743;DHT22;55583;53.012;6.556;2023-06-14T12:25:37;38.50;32.40
52743;DHT22;55583;53.012;6.556;2023-06-14T12:28:08;38.20;31.70
52743;DHT22;55583;53.012;6.556;2023-06-14T12:30:35;38.10;31.50
52743;DHT22;55583;53.012;6.556;2023-06-14T12:33:02;37.90;31.30
52743;DHT22;55583;53.012;6.556;2023-06-14T12:35:28;37.70;31.30
52743;DHT22;55583;53.012;6.556;2023-06-14T12:37:53;38.10;31.80
52743;DHT22;55583;53.012;6.556;2023-06-14T12:40:19;38.50;31.40
52743;DHT22;55583;53.012;6.556;2023-06-14T12:42:45;39.00;31.10
52743;DHT22;55583;53.012;6.556;2023-06-14T12:45:12;39.50;31.40
52743;DHT22;55583;53.012;6.556;2023-06-14T12:47:39;40.00;31.20
52743;DHT22;55583;53.012;6.556;2023-06-14T12:50:05;40.00;31.20
52743;DHT22;55583;53.012;6.556;2023-06-14T12:52:31;39.30;30.60
52743;DHT22;55583;53.012;6.556;2023-06-14T12:54:57;39.10;30.80
52743;DHT22;55583;53.012;6.556;2023-06-14T12:57:23;39.20;31.70
52743;DHT22;55583;53.012;6.556;2023-06-14T12:59:48;39.30;31.30
52743;DHT22;55583;53.012;6.556;2023-06-14T13:02:17;39.40;31.00
52743;DHT22;55583;53.012;6.556;2023-06-14T13:04:43;39.40;30.90
52743;DHT22;55583;53.012;6.556;2023-06-14T13:07:09;39.00;30.70
52743;DHT22;55583;53.012;6.556;2023-06-14T13:09:36;38.50;31.10
52743;DHT22;55583;53.012;6.556;2023-06-14T13:12:02;38.40;31.50
52743;DHT22;55583;53.012;6.556;2023-06-14T13:14:28;38.20;31.30
52743;DHT22;55583;53.012;6.556;2023-06-14T13:16:54;38.00;31.10
52743;DHT22;55583;53.012;6.556;2023-06-14T13:19:21;37.80;31.00
52743;DHT22;55583;53.012;6.556;2023-06-14T13:21:47;37.80;31.30
52743;DHT22;55583;53.012;6.556;2023-06-14T13:24:13;38.00;31.10
52743;DHT22;55583;53.012;6.556;2023-06-14T13:26:39;38.40;31.70
52743;DHT22;55583;53.012;6.556;2023-06-14T13:29:04;38.30;31.90
52743;DHT22;55583;53.012;6.556;2023-06-14T13:31:30;38.40;32.10
52743;DHT22;55583;53.012;6.556;2023-06-14T13:33:56;38.60;31.40
52743;DHT22;55583;53.012;6.556;2023-06-14T13:36:21;38.10;31.10
52743;DHT22;55583;53.012;6.556;2023-06-14T13:38:47;37.70;31.10
52743;DHT22;55583;53.012;6.556;2023-06-14T13:41:13;37.70;31.80
52743;DHT22;55583;53.012;6.556;2023-06-14T13:43:41;37.50;31.80
52743;DHT22;55583;53.012;6.556;2023-06-14T13:46:07;37.70;31.70
52743;DHT22;55583;53.012;6.556;2023-06-14T13:48:32;38.20;32.10
52743;DHT22;55583;53.012;6.556;2023-06-14T13:51:00;38.50;31.60
52743;DHT22;55583;53.012;6.556;2023-06-14T13:53:26;38.30;31.50
52743;DHT22;55583;53.012;6.556;2023-06-14T13:55:52;37.40;31.40
52743;DHT22;55583;53.012;6.556;2023-06-14T13:58:18;36.40;32.10
52743;DHT22;55583;53.012;6.556;2023-06-14T14:00:44;35.90;32.50
52743;DHT22;55583;53.012;6.556;2023-06-14T14:03:10;35.90;32.90
52743;DHT22;55583;53.012;6.556;2023-06-14T14:05:36;35.80;32.40
52743;DHT22;55583;53.012;6.556;2023-06-14T14:08:02;35.60;33.10
52743;DHT22;55583;53.012;6.556;2023-06-14T14:10:29;35.60;33.20
52743;DHT22;55583;53.012;6.556;2023-06-14T14:12:54;36.00;33.40
52743;DHT22;55583;53.012;6.556;2023-06-14T14:15:20;36.20;33.70
52743;DHT22;55583;53.012;6.556;2023-06-14T14:17:46;35.90;32.60
52743;DHT22;55583;53.012;6.556;2023-06-14T14:20:12;35.40;33.10
52743;DHT22;55583;53.012;6.556;2023-06-14T14:22:41;35.00;33.30
52743;DHT22;55583;53.012;6.556;2023-06-14T14:25:07;35.10;33.60
52743;DHT22;55583;53.012;6.556;2023-06-14T14:27:33;35.40;33.50
52743;DHT22;55583;53.012;6.556;2023-06-14T14:29:58;35.50;33.40
52743;DHT22;55583;53.012;6.556;2023-06-14T14:32:24;35.60;33.70
52743;DHT22;55583;53.012;6.556;2023-06-14T14:34:49;35.10;33.40
52743;DHT22;55583;53.012;6.556;2023-06-14T14:37:16;34.20;34.10
52743;DHT22;55583;53.012;6.556;2023-06-14T14:39:41;33.80;34.30
52743;DHT22;55583;53.012;6.556;2023-06-14T14:42:07;33.80;34.20
52743;DHT22;55583;53.012;6.556;2023-06-14T14:44:33;34.10;34.20
52743;DHT22;55583;53.012;6.556;2023-06-14T14:46:59;34.50;34.00
52743;DHT22;55583;53.012;6.556;2023-06-14T14:49:24;34.80;34.30
52743;DHT22;55583;53.012;6.556;2023-06-14T14:51:50;34.80;33.40
52743;DHT22;55583;53.012;6.556;2023-06-14T14:54:16;34.50;33.40
52743;DHT22;55583;53.012;6.556;2023-06-14T14:56:41;34.00;34.30
52743;DHT22;55583;53.012;6.556;2023-06-14T14:59:07;33.50;34.80
52743;DHT22;55583;53.012;6.556;2023-06-14T15:01:32;33.10;35.20
52743;DHT22;55583;53.012;6.556;2023-06-14T15:03:58;33.10;35.30
52743;DHT22;55583;53.012;6.556;2023-06-14T15:06:24;33.50;35.20
52743;DHT22;55583;53.012;6.556;2023-06-14T15:08:49;34.10;35.50
52743;DHT22;55583;53.012;6.556;2023-06-14T15:11:16;34.30;35.60
52743;DHT22;55583;53.012;6.556;2023-06-14T15:13:41;34.20;34.40
52743;DHT22;55583;53.012;6.556;2023-06-14T15:16:07;33.80;35.20
52743;DHT22;55583;53.012;6.556;2023-06-14T15:18:33;33.30;35.10
52743;DHT22;55583;53.012;6.556;2023-06-14T15:20:58;32.80;35.00
52743;DHT22;55583;53.012;6.556;2023-06-14T15:23:24;32.50;35.20
52743;DHT22;55583;53.012;6.556;2023-06-14T15:25:50;32.40;35.70
52743;DHT22;55583;53.012;6.556;2023-06-14T15:28:17;32.10;35.40
52743;DHT22;55583;53.012;6.556;2023-06-14T15:30:43;31.70;35.90
52743;DHT22;55583;53.012;6.556;2023-06-14T15:33:08;31.50;36.30
52743;DHT22;55583;53.012;6.556;2023-06-14T15:35:34;31.30;36.10
52743;DHT22;55583;53.012;6.556;2023-06-14T15:37:59;31.10;36.30
52743;DHT22;55583;53.012;6.556;2023-06-14T15:40:25;30.90;36.40
52743;DHT22;55583;53.012;6.556;2023-06-14T15:42:52;30.80;36.40
52743;DHT22;55583;53.012;6.556;2023-06-14T15:45:17;30.40;36.30
52743;DHT22;55583;53.012;6.556;2023-06-14T15:47:43;30.20;36.50
52743;DHT22;55583;53.012;6.556;2023-06-14T15:50:09;29.80;36.50